Time;durP1;ratioP1;P1;durP2;ratioP2;P2;SDS_P1;SDS_P2;PMS_P1;PMS_P2;Temp;Humidity;BMP_temperature;BMP_pressure;BME280_temperature;BME280_humidity;BME280_pressure;Samples;Min_cycle;Max_cycle;Signal;HPM_P1;HPM_P2
2023/12/24 00:01:10;;;;;;;;;;;5.80;99.90;;;;;;4995766;28;19917;-85
2023/12/24 00:03:36;;;;;;;;;;;5.70;99.90;;;;;;4995390;28;19917;-85
2023/12/24 00:06:02;;;;;;;;;;;5.80;99.90;;;;;;4995484;28;19928;-85
2023/12/24 00:08:31;;;;;;;;;;;5.80;99.90;;;;;;4995769;28;20315;-85
2023/12/24 00:11:06;;;;;;;;;;;5.80;99.90;;;;;;5012026;28;20551;-85
2023/12/24 00:13:32;;;;;;;;;;;5.70;99.90;;;;;;5027667;28;20317;-85
2023/12/24 00:15:57;;;;;;;;;;;5.70;99.90;;;;;;5010812;28;20055;-85
2023/12/24 00:18:23;;;;;;;;;;;5.70;99.90;;;;;;5011092;28;19963;-85
2023/12/24 00:20:49;;;;;;;;;;;5.80;99.90;;;;;;4994341;28;20302;-85
2023/12/24 00:23:14;;;;;;;;;;;5.80;99.90;;;;;;4994601;28;19917;-85
2023/12/24 00:25:40;;;;;;;;;;;5.80;99.90;;;;;;5009313;28;20218;-85
2023/12/24 00:28:06;;;;;;;;;;;5.70;99.90;;;;;;5011273;28;19913;-85
2023/12/24 00:30:32;;;;;;;;;;;5.70;99.90;;;;;;4994653;28;20038;-85
2023/12/24 00:32:58;;;;;;;;;;;5.70;99.90;;;;;;4995408;28;19952;-85
2023/12/24 00:35:25;;;;;;;;;;;5.80;99.90;;;;;;4995154;28;19916;-85
2023/12/24 00:37:58;;;;;;;;;;;5.80;99.90;;;;;;4995119;28;20576;-85
2023/12/24 00:40:24;;;;;;;;;;;5.80;99.90;;;;;;5028154;28;19909;-85
2023/12/24 00:42:49;;;;;;;;;;;5.70;99.90;;;;;;5014724;28;20375;-85
2023/12/24 00:45:15;;;;;;;;;;;5.70;99.90;;;;;;5031018;28;19916;-85
2023/12/24 00:47:41;;;;;;;;;;;5.80;99.90;;;;;;5030575;28;20346;-85
2023/12/24 00:50:07;;;;;;;;;;;5.80;99.90;;;;;;5030678;28;20531;-86
2023/12/24 00:52:33;;;;;;;;;;;5.70;99.90;;;;;;5030438;28;20394;-85
2023/12/24 00:54:59;;;;;;;;;;;5.70;99.90;;;;;;5030604;28;20505;-85
2023/12/24 00:57:25;;;;;;;;;;;5.70;99.90;;;;;;5030865;28;19976;-85
2023/12/24 00:59:50;;;;;;;;;;;5.70;99.90;;;;;;5031427;28;20356;-84
2023/12/24 01:02:16;;;;;;;;;;;5.70;99.90;;;;;;5031364;28;19948;-85
2023/12/24 01:04:41;;;;;;;;;;;5.70;99.90;;;;;;5031622;28;19909;-85
2023/12/24 01:07:07;;;;;;;;;;;5.70;99.90;;;;;;5030993;28;20603;-85
2023/12/24 01:09:33;;;;;;;;;;;5.70;99.90;;;;;;5047825;28;20323;-85
2023/12/24 01:11:58;;;;;;;;;;;5.70;99.90;;;;;;5030809;28;19909;-85
2023/12/24 01:14:24;;;;;;;;;;;5.70;99.90;;;;;;5030678;28;20014;-85
2023/12/24 01:16:49;;;;;;;;;;;5.70;99.90;;;;;;5030567;28;20280;-84
2023/12/24 01:19:15;;;;;;;;;;;5.70;99.90;;;;;;5030954;28;19913;-85
2023/12/24 01:21:40;;;;;;;;;;;5.70;99.90;;;;;;5030649;28;19920;-85
2023/12/24 01:24:06;;;;;;;;;;;5.70;99.90;;;;;;5028082;28;20011;-85
2023/12/24 01:26:36;;;;;;;;;;;5.70;99.90;;;;;;5034149;28;19913;-85
2023/12/24 01:29:02;;;;;;;;;;;5.70;99.90;;;;;;5034637;28;19959;-85
2023/12/24 01:31:28;;;;;;;;;;;5.70;99.90;;;;;;5034325;28;19909;-85
2023/12/24 01:33:54;;;;;;;;;;;5.70;99.90;;;;;;5033832;28;19917;-85
2023/12/24 01:36:19;;;;;;;;;;;5.70;99.90;;;;;;5034068;28;20253;-85
2023/12/24 01:38:45;;;;;;;;;;;5.70;99.90;;;;;;5017727;28;20678;-85
2023/12/24 01:41:12;;;;;;;;;;;5.70;99.90;;;;;;5034139;28;19915;-84
2023/12/24 01:43:40;;;;;;;;;;;5.70;99.90;;;;;;5033946;28;19943;-85
2023/12/24 01:46:07;;;;;;;;;;;5.70;99.90;;;;;;5034296;28;19916;-85
2023/12/24 01:48:32;;;;;;;;;;;5.70;99.90;;;;;;5034625;28;19909;-85
2023/12/24 01:51:00;;;;;;;;;;;5.70;99.90;;;;;;5034628;28;20332;-84
2023/12/24 01:53:26;;;;;;;;;;;5.70;99.90;;;;;;5033872;28;19959;-85
2023/12/24 01:55:51;;;;;;;;;;;5.70;99.90;;;;;;5050320;28;19909;-84
2023/12/24 01:58:17;;;;;;;;;;;5.70;99.90;;;;;;5017082;28;19913;-84
2023/12/24 02:00:43;;;;;;;;;;;5.70;99.90;;;;;;5034146;28;19924;-85
2023/12/24 02:03:09;;;;;;;;;;;5.70;99.90;;;;;;5018184;28;20638;-85
2023/12/24 02:05:35;;;;;;;;;;;5.70;99.90;;;;;;5018023;28;19913;-85
2023/12/24 02:08:02;;;;;;;;;;;5.70;99.90;;;;;;5034492;28;20323;-85
2023/12/24 02:10:32;;;;;;;;;;;5.70;99.90;;;;;;5034224;28;19909;-85
2023/12/24 02:16:28;;;;;;;;;;;5.70;99.90;;;;;;5035692;28;19980;-86
2023/12/24 02:18:54;;;;;;;;;;;5.80;99.90;;;;;;5017636;28;19931;-84
2023/12/24 02:21:19;;;;;;;;;;;5.80;99.90;;;;;;5043090;28;19963;-84
2023/12/24 02:26:58;;;;;;;;;;;5.80;99.90;;;;;;5048203;28;19923;-84
2023/12/24 02:29:44;;;;;;;;;;;5.80;99.90;;;;;;5035664;28;19913;-85
2023/12/24 02:32:12;;;;;;;;;;;5.80;99.90;;;;;;5034261;28;19936;-85
2023/12/24 02:34:38;;;;;;;;;;;5.80;99.90;;;;;;5033428;28;19913;-85
2023/12/24 02:37:05;;;;;;;;;;;5.80;99.90;;;;;;5033718;28;19916;-85
2023/12/24 02:39:30;;;;;;;;;;;5.80;99.90;;;;;;5034267;28;19909;-84
2023/12/24 02:41:56;;;;;;;;;;;5.80;99.90;;;;;;5033773;28;19905;-85
2023/12/24 02:44:22;;;;;;;;;;;5.80;99.90;;;;;;5032651;28;19909;-85
2023/12/24 02:46:47;;;;;;;;;;;5.80;99.90;;;;;;5033277;28;20395;-84
2023/12/24 02:49:14;;;;;;;;;;;5.80;99.90;;;;;;5032825;28;20574;-85
2023/12/24 02:51:40;;;;;;;;;;;5.90;99.90;;;;;;5032373;28;19913;-85
2023/12/24 02:54:05;;;;;;;;;;;5.80;99.90;;;;;;5032791;28;19959;-85
2023/12/24 02:56:36;;;;;;;;;;;5.70;99.90;;;;;;5032276;28;19987;-85
2023/12/24 02:59:03;;;;;;;;;;;5.70;99.90;;;;;;5015766;28;19913;-85
2023/12/24 03:01:29;;;;;;;;;;;5.80;99.90;;;;;;5032577;28;20388;-85
2023/12/24 03:03:55;;;;;;;;;;;5.70;99.90;;;;;;5032377;28;20361;-85
2023/12/24 03:06:20;;;;;;;;;;;5.70;99.90;;;;;;5032481;28;19955;-84
2023/12/24 03:08:46;;;;;;;;;;;5.70;99.90;;;;;;5033995;28;19909;-84
2023/12/24 03:11:12;;;;;;;;;;;5.70;99.90;;;;;;5032539;28;20341;-85
2023/12/24 03:13:37;;;;;;;;;;;5.70;99.90;;;;;;5032116;28;19913;-85
2023/12/24 03:16:03;;;;;;;;;;;5.60;99.90;;;;;;5031910;28;20300;-85
2023/12/24 03:18:29;;;;;;;;;;;5.60;99.90;;;;;;5032721;28;19913;-85
2023/12/24 03:20:54;;;;;;;;;;;5.60;99.90;;;;;;5032107;28;19913;-85
2023/12/24 03:23:20;;;;;;;;;;;5.60;99.90;;;;;;5032427;28;20434;-85
2023/12/24 03:25:45;;;;;;;;;;;5.60;99.90;;;;;;5032138;28;19905;-85
2023/12/24 03:28:11;;;;;;;;;;;5.60;99.90;;;;;;5032398;28;19913;-85
2023/12/24 03:30:36;;;;;;;;;;;5.60;99.90;;;;;;5031791;28;20360;-85
2023/12/24 03:33:02;;;;;;;;;;;5.60;99.90;;;;;;5029636;28;19913;-85
2023/12/24 03:35:28;;;;;;;;;;;5.60;99.90;;;;;;5032269;28;20399;-85
2023/12/24 03:37:54;;;;;;;;;;;5.60;99.90;;;;;;5032660;28;19909;-85
2023/12/24 03:40:19;;;;;;;;;;;5.60;99.90;;;;;;5032622;28;19960;-84
2023/12/24 03:42:46;;;;;;;;;;;5.60;99.90;;;;;;5031972;28;19913;-85
2023/12/24 03:45:12;;;;;;;;;;;5.60;99.90;;;;;;5031849;28;19919;-86
2023/12/24 03:47:38;;;;;;;;;;;5.50;99.90;;;;;;5047941;28;19909;-85
2023/12/24 03:50:05;;;;;;;;;;;5.50;99.90;;;;;;5031919;28;20284;-85
2023/12/24 03:52:31;;;;;;;;;;;5.60;99.90;;;;;;5031816;28;20386;-84
2023/12/24 03:54:56;;;;;;;;;;;5.60;99.90;;;;;;5031900;28;19962;-85
2023/12/24 03:57:22;;;;;;;;;;;5.60;99.90;;;;;;5031691;28;19913;-84
2023/12/24 03:59:48;;;;;;;;;;;5.60;99.90;;;;;;5031600;28;19913;-85
2023/12/24 04:02:15;;;;;;;;;;;5.60;99.90;;;;;;5031989;28;20040;-85
2023/12/24 04:04:45;;;;;;;;;;;5.60;99.90;;;;;;5031168;28;19944;-84
2023/12/24 04:07:11;;;;;;;;;;;5.50;99.90;;;;;;5031348;28;19919;-86
2023/12/24 04:09:37;;;;;;;;;;;5.50;99.90;;;;;;5031852;28;19905;-85
2023/12/24 04:12:02;;;;;;;;;;;5.50;99.90;;;;;;5031901;28;20304;-85
2023/12/24 04:14:28;;;;;;;;;;;5.50;99.90;;;;;;5032147;28;19916;-83
2023/12/24 04:16:54;;;;;;;;;;;5.50;99.90;;;;;;5031690;28;19913;-84
2023/12/24 04:19:21;;;;;;;;;;;5.50;99.90;;;;;;5031616;28;20533;-84
2023/12/24 04:21:47;;;;;;;;;;;5.50;99.90;;;;;;5031714;28;19955;-84
2023/12/24 04:24:13;;;;;;;;;;;5.50;99.90;;;;;;5031632;28;20019;-84
2023/12/24 04:26:38;;;;;;;;;;;5.50;99.90;;;;;;5014612;28;20402;-84
2023/12/24 04:29:04;;;;;;;;;;;5.50;99.90;;;;;;5031090;28;19912;-84
2023/12/24 04:31:31;;;;;;;;;;;5.50;99.90;;;;;;5028140;28;19987;-84
2023/12/24 04:33:57;;;;;;;;;;;5.50;99.90;;;;;;5031098;28;20004;-84
2023/12/24 04:36:22;;;;;;;;;;;5.50;99.90;;;;;;5030851;28;19912;-84
2023/12/24 04:38:48;;;;;;;;;;;5.50;99.90;;;;;;5013919;28;19912;-84
2023/12/24 04:41:17;;;;;;;;;;;5.50;99.90;;;;;;5030907;28;20026;-84
2023/12/24 04:43:43;;;;;;;;;;;5.50;99.90;;;;;;5030990;28;19952;-83
2023/12/24 04:46:08;;;;;;;;;;;5.50;99.90;;;;;;5030669;28;19960;-84
2023/12/24 04:48:34;;;;;;;;;;;5.50;99.90;;;;;;5030721;28;19916;-84
2023/12/24 04:51:00;;;;;;;;;;;5.50;99.90;;;;;;5030423;28;19909;-84
2023/12/24 04:53:26;;;;;;;;;;;5.50;99.90;;;;;;5030671;28;19909;-83
2023/12/24 04:55:54;;;;;;;;;;;5.50;99.90;;;;;;5030444;28;19916;-84
2023/12/24 04:58:19;;;;;;;;;;;5.50;99.90;;;;;;5032010;28;20156;-85
2023/12/24 05:00:45;;;;;;;;;;;5.50;99.90;;;;;;5018377;28;19921;-84
2023/12/24 05:03:10;;;;;;;;;;;5.50;99.90;;;;;;5035059;28;19919;-84
2023/12/24 05:05:36;;;;;;;;;;;5.50;99.90;;;;;;5034523;28;19959;-84
2023/12/24 05:08:02;;;;;;;;;;;5.50;99.90;;;;;;5034776;28;19909;-83
2023/12/24 05:10:28;;;;;;;;;;;5.50;99.90;;;;;;5034355;28;19935;-84
2023/12/24 05:12:54;;;;;;;;;;;5.50;99.90;;;;;;5034905;28;19913;-83
2023/12/24 05:15:19;;;;;;;;;;;5.60;99.90;;;;;;5034791;28;19909;-84
2023/12/24 05:17:45;;;;;;;;;;;5.60;99.90;;;;;;5034564;28;20364;-84
2023/12/24 05:20:13;;;;;;;;;;;5.60;99.90;;;;;;5034562;28;19920;-83
2023/12/24 05:22:39;;;;;;;;;;;5.60;99.90;;;;;;5034453;28;19913;-84
2023/12/24 05:25:04;;;;;;;;;;;5.60;99.90;;;;;;5017932;28;19962;-84
2023/12/24 05:27:30;;;;;;;;;;;5.60;99.90;;;;;;5035435;28;19928;-84
2023/12/24 05:29:56;;;;;;;;;;;5.60;99.90;;;;;;5035448;28;19913;-84
2023/12/24 05:32:21;;;;;;;;;;;5.60;99.90;;;;;;5031731;28;19905;-84
2023/12/24 05:34:47;;;;;;;;;;;5.70;99.90;;;;;;5034597;28;19909;-84
2023/12/24 05:37:12;;;;;;;;;;;5.60;99.90;;;;;;5034167;28;19909;-84
2023/12/24 05:39:42;;;;;;;;;;;5.60;99.90;;;;;;5034135;28;19909;-84
2023/12/24 05:42:08;;;;;;;;;;;5.70;99.90;;;;;;5035763;28;20365;-84
2023/12/24 05:44:33;;;;;;;;;;;5.70;99.90;;;;;;5034271;28;19905;-84
2023/12/24 05:46:59;;;;;;;;;;;5.60;99.90;;;;;;5034971;28;20411;-84
2023/12/24 05:49:25;;;;;;;;;;;5.70;99.90;;;;;;5034845;28;20047;-84
2023/12/24 05:51:50;;;;;;;;;;;5.60;99.90;;;;;;5051007;28;19968;-84
2023/12/24 05:54:16;;;;;;;;;;;5.60;99.90;;;;;;5051601;28;19956;-84
2023/12/24 05:56:41;;;;;;;;;;;5.70;99.90;;;;;;5034248;28;19916;-84
2023/12/24 05:59:07;;;;;;;;;;;5.60;99.90;;;;;;5060735;28;19909;-84
2023/12/24 06:01:33;;;;;;;;;;;5.60;99.90;;;;;;5034966;28;19912;-84
2023/12/24 06:03:58;;;;;;;;;;;5.60;99.90;;;;;;5034165;28;19924;-84
2023/12/24 06:06:24;;;;;;;;;;;5.60;99.90;;;;;;5033989;28;20369;-83
2023/12/24 06:08:49;;;;;;;;;;;5.60;99.90;;;;;;5033128;28;19928;-83
2023/12/24 06:11:16;;;;;;;;;;;5.60;99.90;;;;;;5016541;28;20573;-83
2023/12/24 06:13:42;;;;;;;;;;;5.60;99.90;;;;;;5033674;28;19913;-83
2023/12/24 06:16:07;;;;;;;;;;;5.60;99.90;;;;;;5033455;28;20360;-83
2023/12/24 06:18:33;;;;;;;;;;;5.60;99.90;;;;;;5033650;28;19917;-84
2023/12/24 06:20:59;;;;;;;;;;;5.60;99.90;;;;;;5033750;28;20710;-83
2023/12/24 06:23:24;;;;;;;;;;;5.60;99.90;;;;;;5034763;28;19928;-83
2023/12/24 06:25:50;;;;;;;;;;;5.70;99.90;;;;;;5033040;28;19916;-83
2023/12/24 06:28:16;;;;;;;;;;;5.70;99.90;;;;;;5033328;28;19925;-83
2023/12/24 06:30:41;;;;;;;;;;;5.60;99.90;;;;;;5033222;28;20284;-83
2023/12/24 06:33:07;;;;;;;;;;;5.60;99.90;;;;;;5033304;28;19995;-83
2023/12/24 06:35:33;;;;;;;;;;;5.60;99.90;;;;;;5030555;28;19913;-84
2023/12/24 06:37:59;;;;;;;;;;;5.70;99.90;;;;;;5032391;28;19936;-83
2023/12/24 06:40:24;;;;;;;;;;;5.70;99.90;;;;;;5032980;28;19939;-83
2023/12/24 06:42:50;;;;;;;;;;;5.60;99.90;;;;;;5032444;28;19936;-82
2023/12/24 06:45:16;;;;;;;;;;;5.70;99.90;;;;;;5016124;28;19920;-83
2023/12/24 06:47:41;;;;;;;;;;;5.60;99.90;;;;;;5031882;28;19995;-84
2023/12/24 06:50:07;;;;;;;;;;;5.70;99.90;;;;;;5031407;28;19909;-84
2023/12/24 06:52:33;;;;;;;;;;;5.60;99.90;;;;;;5031768;28;20360;-84
2023/12/24 06:54:58;;;;;;;;;;;5.70;99.90;;;;;;5031985;28;19928;-84
2023/12/24 06:57:24;;;;;;;;;;;5.60;99.90;;;;;;5015546;28;19917;-84
2023/12/24 06:59:50;;;;;;;;;;;5.70;99.90;;;;;;5031668;28;19917;-84
2023/12/24 07:02:16;;;;;;;;;;;5.70;99.90;;;;;;5031898;28;19955;-84
2023/12/24 07:04:41;;;;;;;;;;;5.70;99.90;;;;;;5031939;28;19913;-84
2023/12/24 07:07:07;;;;;;;;;;;5.70;99.90;;;;;;5031956;28;19956;-83
2023/12/24 07:09:33;;;;;;;;;;;5.70;99.90;;;;;;5048926;28;19959;-84
2023/12/24 07:11:59;;;;;;;;;;;5.70;99.90;;;;;;5031325;28;19919;-84
2023/12/24 07:14:26;;;;;;;;;;;5.70;99.90;;;;;;5031343;28;20637;-84
2023/12/24 07:16:51;;;;;;;;;;;5.70;99.90;;;;;;5030986;28;19932;-84
2023/12/24 07:19:17;;;;;;;;;;;5.70;99.90;;;;;;5014666;28;19910;-84
2023/12/24 07:21:43;;;;;;;;;;;5.70;99.90;;;;;;5030197;28;19913;-84
2023/12/24 07:24:10;;;;;;;;;;;5.70;99.90;;;;;;5031447;28;20714;-84
2023/12/24 07:26:36;;;;;;;;;;;5.70;99.90;;;;;;5032474;28;20300;-84
2023/12/24 07:29:02;;;;;;;;;;;5.70;99.90;;;;;;5032129;28;19955;-84
2023/12/24 07:31:28;;;;;;;;;;;5.70;99.90;;;;;;5032251;28;19905;-84
2023/12/24 07:33:53;;;;;;;;;;;5.70;99.90;;;;;;5031485;28;19913;-84
2023/12/24 07:36:19;;;;;;;;;;;5.70;99.90;;;;;;5031594;28;19912;-85
2023/12/24 07:38:45;;;;;;;;;;;5.70;99.90;;;;;;5032070;28;19913;-84
2023/12/24 07:41:10;;;;;;;;;;;5.70;99.90;;;;;;5031368;28;19913;-83
2023/12/24 07:43:36;;;;;;;;;;;5.70;99.90;;;;;;5031326;28;19956;-84
2023/12/24 07:46:02;;;;;;;;;;;5.70;99.90;;;;;;5048093;28;19928;-84
2023/12/24 07:48:28;;;;;;;;;;;5.70;99.90;;;;;;5031435;28;19905;-84
2023/12/24 07:50:53;;;;;;;;;;;5.70;99.90;;;;;;5031217;28;19921;-84
2023/12/24 07:53:19;;;;;;;;;;;5.70;99.90;;;;;;5030667;28;19936;-85
2023/12/24 07:55:45;;;;;;;;;;;5.60;99.90;;;;;;5030585;28;19917;-85
2023/12/24 07:58:10;;;;;;;;;;;5.60;99.90;;;;;;5031163;28;19909;-84
2023/12/24 08:00:36;;;;;;;;;;;5.60;99.90;;;;;;5030970;28;19913;-84
2023/12/24 08:03:02;;;;;;;;;;;5.60;99.90;;;;;;5030402;28;20248;-85
2023/12/24 08:05:28;;;;;;;;;;;5.60;99.90;;;;;;5031014;28;19966;-84
2023/12/24 08:07:53;;;;;;;;;;;5.60;99.90;;;;;;5016289;28;19917;-84
2023/12/24 08:10:19;;;;;;;;;;;5.60;99.90;;;;;;5013704;28;19919;-85
2023/12/24 08:12:44;;;;;;;;;;;5.60;99.90;;;;;;5030591;28;19919;-84
2023/12/24 08:15:10;;;;;;;;;;;5.60;99.90;;;;;;5030838;28;19913;-85
2023/12/24 08:17:38;;;;;;;;;;;5.60;99.90;;;;;;5032165;28;19915;-84
2023/12/24 08:20:07;;;;;;;;;;;5.60;99.90;;;;;;5030951;28;19916;-83
2023/12/24 08:22:34;;;;;;;;;;;5.60;99.90;;;;;;5030993;28;19913;-84
2023/12/24 08:25:00;;;;;;;;;;;5.60;99.90;;;;;;5031409;28;19912;-85
2023/12/24 08:27:26;;;;;;;;;;;5.60;99.90;;;;;;5030550;28;19909;-85
2023/12/24 08:29:51;;;;;;;;;;;5.60;99.90;;;;;;5030280;28;19909;-84
2023/12/24 08:32:17;;;;;;;;;;;5.70;99.90;;;;;;5030423;28;20016;-85
2023/12/24 08:34:43;;;;;;;;;;;5.60;99.90;;;;;;5030298;28;20023;-84
2023/12/24 08:37:09;;;;;;;;;;;5.70;99.90;;;;;;5030762;28;19909;-84
2023/12/24 08:39:34;;;;;;;;;;;5.60;99.90;;;;;;5030517;28;20040;-85
2023/12/24 08:42:00;;;;;;;;;;;5.70;99.90;;;;;;5031513;28;19999;-83
2023/12/24 08:44:25;;;;;;;;;;;5.70;99.90;;;;;;5031360;28;19913;-85
2023/12/24 08:46:51;;;;;;;;;;;5.70;99.90;;;;;;5030297;28;19909;-85
2023/12/24 08:49:17;;;;;;;;;;;5.70;99.90;;;;;;5030704;28;19935;-85
2023/12/24 08:51:42;;;;;;;;;;;5.70;99.90;;;;;;5029917;28;20372;-84
2023/12/24 08:54:08;;;;;;;;;;;5.60;99.90;;;;;;5030595;28;20690;-84
2023/12/24 08:56:34;;;;;;;;;;;5.70;99.90;;;;;;5030890;28;20530;-85
2023/12/24 08:59:00;;;;;;;;;;;5.70;99.90;;;;;;5029825;28;20582;-85
2023/12/24 09:01:25;;;;;;;;;;;5.80;99.90;;;;;;5029396;28;19932;-84
2023/12/24 09:03:51;;;;;;;;;;;5.80;99.90;;;;;;5029443;28;20380;-84
2023/12/24 09:06:17;;;;;;;;;;;5.80;99.90;;;;;;5029785;28;19928;-85
2023/12/24 09:08:42;;;;;;;;;;;5.80;99.90;;;;;;5030413;28;19909;-84
2023/12/24 09:11:08;;;;;;;;;;;5.90;99.90;;;;;;5030576;28;20539;-85
2023/12/24 09:13:33;;;;;;;;;;;5.80;99.90;;;;;;5030377;28;19913;-85
2023/12/24 09:15:59;;;;;;;;;;;5.80;99.90;;;;;;5030688;28;19909;-85
2023/12/24 09:18:25;;;;;;;;;;;5.80;99.90;;;;;;5014059;28;19961;-84
2023/12/24 09:20:51;;;;;;;;;;;5.80;99.90;;;;;;5030394;28;19909;-85
2023/12/24 09:23:20;;;;;;;;;;;5.90;99.90;;;;;;5031833;28;19913;-85
2023/12/24 09:25:45;;;;;;;;;;;5.90;99.90;;;;;;5030243;28;19913;-85
2023/12/24 09:28:11;;;;;;;;;;;5.80;99.90;;;;;;5030781;28;20415;-85
2023/12/24 09:30:37;;;;;;;;;;;5.90;99.90;;;;;;5031783;28;20399;-84
2023/12/24 09:33:03;;;;;;;;;;;5.90;99.90;;;;;;5028675;28;19913;-85
2023/12/24 09:35:30;;;;;;;;;;;5.80;99.90;;;;;;5029946;28;19963;-85
2023/12/24 09:37:55;;;;;;;;;;;5.90;99.90;;;;;;5030450;28;19913;-84
2023/12/24 09:40:21;;;;;;;;;;;5.80;99.90;;;;;;5036983;28;19912;-84
2023/12/24 09:42:47;;;;;;;;;;;5.80;99.90;;;;;;5034936;28;20352;-85
2023/12/24 09:45:12;;;;;;;;;;;5.90;99.90;;;;;;5048245;28;20388;-83
2023/12/24 09:47:40;;;;;;;;;;;5.90;99.90;;;;;;5033583;28;19964;-85
2023/12/24 09:50:06;;;;;;;;;;;5.90;99.90;;;;;;5033787;28;19913;-85
2023/12/24 09:52:32;;;;;;;;;;;5.90;99.90;;;;;;5033937;28;19916;-85
2023/12/24 09:55:23;;;;;;;;;;;5.80;99.90;;;;;;5034975;28;19935;-85
2023/12/24 09:57:48;;;;;;;;;;;5.90;99.90;;;;;;5034132;28;20631;-85
2023/12/24 10:00:14;;;;;;;;;;;5.90;99.90;;;;;;5034031;28;19917;-85
2023/12/24 10:02:40;;;;;;;;;;;5.90;99.90;;;;;;5034309;28;19913;-84
2023/12/24 10:05:06;;;;;;;;;;;6.00;99.90;;;;;;5034328;28;19913;-86
2023/12/24 10:07:38;;;;;;;;;;;6.00;99.90;;;;;;5034116;28;19920;-85
2023/12/24 10:10:36;;;;;;;;;;;6.00;99.90;;;;;;5033867;28;19909;-85
2023/12/24 10:13:35;;;;;;;;;;;6.00;99.90;;;;;;5050505;28;20376;-84
2023/12/24 10:16:10;;;;;;;;;;;6.00;99.90;;;;;;5034202;28;19921;-85
2023/12/24 10:18:36;;;;;;;;;;;6.00;99.90;;;;;;5033460;28;20618;-85
2023/12/24 10:21:08;;;;;;;;;;;6.10;99.90;;;;;;5033206;28;19955;-85
2023/12/24 10:23:33;;;;;;;;;;;6.10;99.90;;;;;;5033701;28;19920;-84
2023/12/24 10:26:06;;;;;;;;;;;6.10;99.90;;;;;;5033163;28;19908;-85
2023/12/24 10:28:33;;;;;;;;;;;6.10;99.90;;;;;;5033141;28;20388;-84
2023/12/24 10:31:08;;;;;;;;;;;6.10;99.90;;;;;;5033384;28;20035;-85
2023/12/24 10:33:37;;;;;;;;;;;6.10;99.90;;;;;;5032832;28;19960;-84
2023/12/24 10:36:03;;;;;;;;;;;6.20;99.90;;;;;;5034572;28;20356;-85
2023/12/24 10:38:29;;;;;;;;;;;6.20;99.90;;;;;;5032896;28;19913;-85
2023/12/24 10:40:54;;;;;;;;;;;6.20;99.90;;;;;;5015931;28;19971;-84
2023/12/24 10:43:20;;;;;;;;;;;6.20;99.90;;;;;;5033212;28;19917;-85
2023/12/24 10:45:49;;;;;;;;;;;6.20;99.90;;;;;;5033404;28;19913;-85
2023/12/24 10:48:15;;;;;;;;;;;6.20;99.90;;;;;;5032284;28;20439;-85
2023/12/24 10:50:41;;;;;;;;;;;6.10;99.90;;;;;;5017033;28;20004;-85
2023/12/24 10:53:06;;;;;;;;;;;6.20;99.90;;;;;;5033319;28;20344;-85
2023/12/24 10:55:33;;;;;;;;;;;6.10;99.90;;;;;;5032716;28;19949;-85
2023/12/24 10:58:18;;;;;;;;;;;6.20;99.90;;;;;;5033209;28;19963;-85
2023/12/24 11:00:43;;;;;;;;;;;6.10;99.90;;;;;;5032616;28;20280;-85
2023/12/24 11:03:09;;;;;;;;;;;6.20;99.90;;;;;;5033277;28;19923;-85
2023/12/24 11:05:46;;;;;;;;;;;6.20;99.90;;;;;;5033685;28;19980;-86
2023/12/24 11:08:37;;;;;;;;;;;6.20;99.90;;;;;;5033073;28;19917;-85
2023/12/24 11:11:04;;;;;;;;;;;6.20;99.90;;;;;;5032282;28;19909;-84
2023/12/24 11:13:29;;;;;;;;;;;6.20;99.90;;;;;;5032212;28;19916;-86
2023/12/24 11:15:55;;;;;;;;;;;6.30;99.90;;;;;;5032828;28;19913;-85
2023/12/24 11:18:40;;;;;;;;;;;6.20;99.90;;;;;;5031985;28;20083;-85
2023/12/24 11:21:05;;;;;;;;;;;6.30;99.90;;;;;;5032316;28;19920;-86
2023/12/24 11:23:31;;;;;;;;;;;6.30;99.90;;;;;;5032505;28;19913;-85
2023/12/24 11:25:56;;;;;;;;;;;6.30;99.90;;;;;;5031971;28;19913;-84
2023/12/24 11:28:23;;;;;;;;;;;6.30;99.90;;;;;;5032187;28;19912;-85
2023/12/24 11:30:51;;;;;;;;;;;6.30;99.90;;;;;;5048954;28;19919;-85
2023/12/24 11:33:36;;;;;;;;;;;6.30;99.90;;;;;;5032222;28;19956;-85
2023/12/24 11:36:07;;;;;;;;;;;6.30;99.90;;;;;;5031720;28;19916;-86
2023/12/24 11:38:33;;;;;;;;;;;6.30;99.90;;;;;;5031879;28;19909;-85
2023/12/24 11:41:12;;;;;;;;;;;6.30;99.90;;;;;;5032037;28;20276;-85
2023/12/24 11:43:39;;;;;;;;;;;6.30;99.90;;;;;;5031222;28;20046;-86
2023/12/24 11:46:05;;;;;;;;;;;6.30;99.90;;;;;;5031542;28;19912;-86
2023/12/24 11:48:35;;;;;;;;;;;6.30;99.90;;;;;;5031472;28;19909;-85
2023/12/24 11:51:08;;;;;;;;;;;6.30;99.90;;;;;;5032366;28;20038;-85
2023/12/24 11:53:34;;;;;;;;;;;6.30;99.90;;;;;;5031795;28;19909;-85
2023/12/24 11:56:04;;;;;;;;;;;6.40;99.90;;;;;;5031386;28;19905;-85
2023/12/24 11:58:29;;;;;;;;;;;6.30;99.90;;;;;;5031637;28;19913;-85
2023/12/24 12:00:57;;;;;;;;;;;6.30;99.90;;;;;;5048198;28;19971;-85
2023/12/24 12:03:23;;;;;;;;;;;6.30;99.90;;;;;;5031586;28;20027;-85
2023/12/24 12:05:48;;;;;;;;;;;6.30;99.90;;;;;;5031151;28;19968;-85
2023/12/24 12:08:14;;;;;;;;;;;6.30;99.90;;;;;;5031037;28;19913;-85
2023/12/24 12:10:40;;;;;;;;;;;6.30;99.90;;;;;;5031838;28;19916;-85
2023/12/24 12:13:06;;;;;;;;;;;6.30;99.90;;;;;;5031681;28;20368;-85
2023/12/24 12:15:31;;;;;;;;;;;6.30;99.90;;;;;;5031455;28;19932;-85
2023/12/24 12:17:57;;;;;;;;;;;6.30;99.90;;;;;;5031829;28;20384;-86
2023/12/24 12:20:22;;;;;;;;;;;6.30;99.90;;;;;;5031262;28;20279;-85
2023/12/24 12:22:49;;;;;;;;;;;6.30;99.90;;;;;;5031505;28;19920;-85
2023/12/24 12:25:15;;;;;;;;;;;6.30;99.90;;;;;;5031472;28;19952;-85
2023/12/24 12:27:40;;;;;;;;;;;6.40;99.90;;;;;;5031058;28;19952;-86
2023/12/24 12:30:06;;;;;;;;;;;6.40;99.90;;;;;;5030980;28;19917;-85
2023/12/24 12:32:32;;;;;;;;;;;6.30;99.90;;;;;;5031100;28;20004;-85
2023/12/24 12:34:57;;;;;;;;;;;6.40;99.90;;;;;;5031246;28;20288;-85
2023/12/24 12:37:23;;;;;;;;;;;6.40;99.90;;;;;;5031341;28;19916;-86
2023/12/24 12:39:49;;;;;;;;;;;6.40;99.90;;;;;;5031526;28;19909;-85
2023/12/24 12:42:14;;;;;;;;;;;6.40;99.90;;;;;;5031030;28;19924;-85
2023/12/24 12:44:40;;;;;;;;;;;6.40;99.90;;;;;;5031197;28;19915;-85
2023/12/24 12:47:05;;;;;;;;;;;6.40;99.90;;;;;;5047255;28;19936;-85
2023/12/24 12:49:31;;;;;;;;;;;6.40;99.90;;;;;;5030967;28;19959;-85
2023/12/24 12:51:57;;;;;;;;;;;6.40;99.90;;;;;;5030540;28;20601;-86
2023/12/24 12:54:23;;;;;;;;;;;6.40;99.90;;;;;;5031106;28;19948;-85
2023/12/24 12:56:48;;;;;;;;;;;6.50;99.90;;;;;;5030749;28;20427;-83
2023/12/24 12:59:21;;;;;;;;;;;6.50;99.90;;;;;;5030926;28;19913;-85
2023/12/24 13:01:47;;;;;;;;;;;6.50;99.90;;;;;;5031018;28;20536;-85
2023/12/24 13:04:26;;;;;;;;;;;6.50;99.90;;;;;;5030741;28;20029;-85
2023/12/24 13:06:52;;;;;;;;;;;6.50;99.90;;;;;;5030997;28;19983;-85
2023/12/24 13:09:21;;;;;;;;;;;6.50;99.90;;;;;;5031322;28;19952;-85
2023/12/24 13:11:47;;;;;;;;;;;6.50;99.90;;;;;;5031353;28;20440;-86
2023/12/24 13:14:13;;;;;;;;;;;6.50;99.90;;;;;;5014619;28;19909;-86
2023/12/24 13:16:39;;;;;;;;;;;6.50;99.90;;;;;;5030653;28;19909;-85
2023/12/24 13:19:14;;;;;;;;;;;6.60;99.90;;;;;;5032059;28;19920;-85
2023/12/24 13:21:40;;;;;;;;;;;6.60;99.90;;;;;;5034390;28;19917;-86
2023/12/24 13:24:06;;;;;;;;;;;6.60;99.90;;;;;;5034923;28;19916;-85
2023/12/24 13:26:31;;;;;;;;;;;6.60;99.90;;;;;;5034452;28;19979;-85
2023/12/24 13:28:57;;;;;;;;;;;6.60;99.90;;;;;;5034589;28;19974;-85
2023/12/24 13:31:25;;;;;;;;;;;6.60;99.90;;;;;;5034940;28;20376;-85
2023/12/24 13:33:51;;;;;;;;;;;6.60;99.90;;;;;;5034289;28;20003;-85
2023/12/24 13:36:16;;;;;;;;;;;6.60;99.90;;;;;;5034760;28;19952;-85
2023/12/24 13:38:42;;;;;;;;;;;6.60;99.90;;;;;;5035020;28;20006;-85
2023/12/24 13:41:08;;;;;;;;;;;6.60;99.90;;;;;;5035060;28;19909;-86
2023/12/24 13:43:33;;;;;;;;;;;6.60;99.90;;;;;;5051511;28;19912;-85
2023/12/24 13:45:59;;;;;;;;;;;6.60;99.90;;;;;;5034334;28;19919;-85
2023/12/24 13:48:25;;;;;;;;;;;6.60;99.90;;;;;;5017565;28;20276;-85
2023/12/24 13:50:52;;;;;;;;;;;6.60;99.90;;;;;;5034373;28;19953;-85
2023/12/24 13:53:18;;;;;;;;;;;6.70;99.90;;;;;;5039562;28;19897;-85
2023/12/24 13:55:44;;;;;;;;;;;6.70;99.90;;;;;;5042916;28;19945;-86
2023/12/24 13:58:10;;;;;;;;;;;6.70;99.90;;;;;;5034527;28;19920;-85
2023/12/24 14:00:36;;;;;;;;;;;6.70;99.90;;;;;;5034881;28;19912;-85
2023/12/24 14:03:03;;;;;;;;;;;6.70;99.90;;;;;;5034347;28;20365;-85
2023/12/24 14:05:28;;;;;;;;;;;6.70;99.90;;;;;;5034508;28;19916;-85
2023/12/24 14:07:55;;;;;;;;;;;6.70;99.90;;;;;;5033292;28;20364;-85
2023/12/24 14:10:27;;;;;;;;;;;6.70;99.90;;;;;;5033701;28;19909;-85
2023/12/24 14:12:54;;;;;;;;;;;6.70;99.90;;;;;;5033733;28;20047;-86
2023/12/24 14:15:19;;;;;;;;;;;6.70;99.90;;;;;;5033161;28;19913;-86
2023/12/24 14:17:45;;;;;;;;;;;6.70;99.90;;;;;;5033038;28;19951;-86
2023/12/24 14:20:16;;;;;;;;;;;6.70;99.90;;;;;;5033355;28;20251;-85
2023/12/24 14:22:41;;;;;;;;;;;6.70;99.90;;;;;;5032885;28;21831;-85
2023/12/24 14:25:08;;;;;;;;;;;6.70;99.90;;;;;;5032777;28;20368;-85
2023/12/24 14:31:03;;;;;;;;;;;6.80;99.90;;;;;;5033699;28;19916;-85
2023/12/24 14:33:28;;;;;;;;;;;6.70;99.90;;;;;;5032298;28;19917;-85
2023/12/24 14:35:54;;;;;;;;;;;6.80;99.90;;;;;;5032884;28;19917;-85
2023/12/24 14:38:35;;;;;;;;;;;6.80;99.90;;;;;;5032979;28;19913;-85